createdAt,value
2017-11-04T00:00:39.401Z,95.79
2017-11-04T00:03:06.987Z,95.83
2017-11-04T00:05:34.556Z,95.82
2017-11-04T00:08:02.125Z,95.58
2017-11-04T00:10:29.708Z,95.36
2017-11-04T00:12:57.595Z,95.30
2017-11-04T00:15:25.201Z,95.35
2017-11-04T00:17:52.785Z,95.41
2017-11-04T00:20:20.336Z,95.42
2017-11-04T00:22:47.909Z,95.46
2017-11-04T00:25:15.476Z,95.53
2017-11-04T00:27:43.042Z,95.54
2017-11-04T00:30:10.604Z,95.78
2017-11-04T00:32:38.169Z,95.83
2017-11-04T00:35:05.709Z,96.19
2017-11-04T00:37:33.818Z,96.27
2017-11-04T00:40:01.385Z,96.07
2017-11-04T00:42:29.524Z,95.67
2017-11-04T00:44:57.111Z,95.45
2017-11-04T00:47:24.670Z,95.36
2017-11-04T00:49:52.239Z,95.23
2017-11-04T00:52:19.788Z,95.06
2017-11-04T00:54:47.438Z,95.02
2017-11-04T00:57:14.999Z,95.00
2017-11-04T00:59:42.534Z,95.08
2017-11-04T01:02:10.094Z,95.33
2017-11-04T01:04:37.712Z,95.38
2017-11-04T01:07:05.790Z,95.31
2017-11-04T01:09:33.333Z,95.47
2017-11-04T01:12:00.880Z,95.52
2017-11-04T01:14:28.475Z,95.68
2017-11-04T01:16:56.026Z,95.83
2017-11-04T01:19:23.609Z,95.86
2017-11-04T01:21:51.163Z,95.98
2017-11-04T01:24:18.753Z,96.14
2017-11-04T01:26:46.307Z,96.36
2017-11-04T01:29:13.880Z,96.63
2017-11-04T01:31:41.434Z,96.68
2017-11-04T01:34:10.910Z,96.78
2017-11-04T01:36:38.498Z,96.83
2017-11-04T01:39:06.032Z,96.81
2017-11-04T01:41:33.613Z,96.76
2017-11-04T01:44:01.160Z,96.65
2017-11-04T01:46:28.727Z,96.63
2017-11-04T01:48:56.414Z,96.54
2017-11-04T01:51:23.956Z,96.56
2017-11-04T01:53:50.955Z,96.42
2017-11-04T01:56:18.478Z,96.26
2017-11-04T01:58:46.079Z,95.78
2017-11-04T02:01:13.740Z,95.52
2017-11-04T02:03:41.317Z,95.31
2017-11-04T02:06:08.860Z,95.48
2017-11-04T02:08:36.508Z,95.74
2017-11-04T02:11:04.141Z,95.77
2017-11-04T02:13:31.712Z,95.91
2017-11-04T02:15:59.275Z,95.61
2017-11-04T02:18:26.816Z,95.50
2017-11-04T02:20:54.369Z,95.76
2017-11-04T02:23:21.920Z,95.94
2017-11-04T02:25:49.516Z,95.91
2017-11-04T02:28:17.064Z,95.49
2017-11-04T02:30:44.602Z,95.41
2017-11-04T02:33:12.351Z,95.54
2017-11-04T02:35:40.002Z,95.25
2017-11-04T02:38:07.608Z,95.34
2017-11-04T02:40:35.170Z,94.94
2017-11-04T02:43:02.750Z,94.90
2017-11-04T02:45:30.300Z,95.54
2017-11-04T02:47:57.922Z,95.83
2017-11-04T02:50:25.490Z,95.80
2017-11-04T02:52:53.046Z,95.70
2017-11-04T02:55:20.612Z,95.68
2017-11-04T02:57:48.157Z,95.57
2017-11-04T03:00:15.737Z,95.42
2017-11-04T03:02:43.288Z,95.34
2017-11-04T03:05:10.864Z,95.35
2017-11-04T03:07:38.404Z,95.40
2017-11-04T03:10:05.968Z,95.31
2017-11-04T03:12:33.532Z,95.40
2017-11-04T03:15:01.084Z,95.23
2017-11-04T03:17:28.648Z,95.26
2017-11-04T03:19:56.191Z,95.74
2017-11-04T03:22:23.836Z,95.78
2017-11-04T03:24:51.413Z,95.78
2017-11-04T03:27:18.969Z,95.85
2017-11-04T03:29:46.584Z,95.92
2017-11-04T03:32:14.216Z,95.97
2017-11-04T03:34:41.816Z,95.95
2017-11-04T03:37:09.365Z,95.96
2017-11-04T03:39:37.104Z,96.25
2017-11-04T03:42:04.665Z,96.38
2017-11-04T03:44:32.208Z,96.44
2017-11-04T03:46:59.781Z,96.30
2017-11-04T03:49:27.328Z,96.27
2017-11-04T03:51:54.898Z,96.70
2017-11-04T03:54:22.443Z,96.59
2017-11-04T03:56:49.982Z,96.88
2017-11-04T03:59:17.545Z,96.99
2017-11-04T04:01:45.077Z,97.27
2017-11-04T04:04:12.622Z,97.25
2017-11-04T04:06:40.169Z,97.02
2017-11-04T04:09:07.738Z,96.92
2017-11-04T04:11:35.372Z,96.79
2017-11-04T04:14:02.986Z,96.90
2017-11-04T04:16:30.577Z,97.40
2017-11-04T04:18:58.110Z,97.37
2017-11-04T04:21:25.885Z,97.22
2017-11-04T04:23:53.538Z,97.36
2017-11-04T04:26:21.191Z,97.53
2017-11-04T04:28:48.749Z,97.52
2017-11-04T04:31:16.300Z,97.69
2017-11-04T04:33:43.915Z,97.73
2017-11-04T04:36:11.675Z,97.75
2017-11-04T04:38:39.245Z,97.84
2017-11-04T04:41:06.779Z,97.95
2017-11-04T04:43:34.309Z,97.86
2017-11-04T04:46:01.873Z,97.62
2017-11-04T04:48:29.604Z,97.43
2017-11-04T04:50:57.177Z,97.45
2017-11-04T04:53:24.708Z,97.72
2017-11-04T04:55:52.418Z,97.86
2017-11-04T04:58:19.959Z,97.97
2017-11-04T05:00:47.493Z,97.86
2017-11-04T05:03:15.059Z,97.82
2017-11-04T05:05:42.600Z,97.76
2017-11-04T05:08:10.157Z,97.80
2017-11-04T05:10:37.709Z,97.83
2017-11-04T05:13:05.319Z,97.83
2017-11-04T05:15:32.991Z,97.76
2017-11-04T05:18:00.921Z,97.58
2017-11-04T05:20:28.473Z,97.49
2017-11-04T05:22:56.064Z,97.46
2017-11-04T05:25:23.713Z,97.52
2017-11-04T05:27:51.253Z,97.48
2017-11-04T05:30:18.813Z,97.39
2017-11-04T05:32:46.397Z,97.29
2017-11-04T05:35:14.322Z,97.17
2017-11-04T05:37:41.880Z,97.21
2017-11-04T05:40:09.431Z,97.33
2017-11-04T05:42:37.001Z,97.45
2017-11-04T05:45:04.529Z,97.48
2017-11-04T05:47:33.015Z,97.42
2017-11-04T05:50:00.571Z,97.60
2017-11-04T05:52:28.151Z,97.53
2017-11-04T05:54:55.690Z,97.62
2017-11-04T05:57:23.265Z,97.60
2017-11-04T05:59:50.824Z,97.40
2017-11-04T06:02:18.366Z,97.34
2017-11-04T06:04:45.938Z,97.29
2017-11-04T06:07:13.499Z,97.41
2017-11-04T06:09:41.044Z,97.43
2017-11-04T06:12:08.623Z,97.14
2017-11-04T06:14:36.141Z,96.90
2017-11-04T06:17:03.693Z,96.63
2017-11-04T06:19:31.246Z,96.46
2017-11-04T06:21:58.787Z,96.29
2017-11-04T06:24:26.372Z,96.12
2017-11-04T06:26:53.902Z,96.30
2017-11-04T06:29:21.478Z,96.52
2017-11-04T06:31:49.045Z,96.45
2017-11-04T06:34:16.583Z,96.43
2017-11-04T06:36:44.149Z,96.72
2017-11-04T06:39:11.694Z,96.70
2017-11-04T06:41:39.290Z,96.56
2017-11-04T06:44:06.840Z,96.26
2017-11-04T06:46:34.430Z,96.15
2017-11-04T06:49:01.975Z,96.17
2017-11-04T06:51:29.511Z,96.58
2017-11-04T06:53:57.070Z,96.55
2017-11-04T06:56:24.613Z,96.26
2017-11-04T06:58:52.195Z,96.09
2017-11-04T07:01:19.751Z,95.63
2017-11-04T07:03:47.319Z,95.71
2017-11-04T07:06:15.091Z,95.76
2017-11-04T07:08:42.626Z,95.74
2017-11-04T07:11:10.177Z,95.39
2017-11-04T07:13:37.868Z,95.28
2017-11-04T07:16:05.456Z,95.48
2017-11-04T07:18:33.006Z,94.70
2017-11-04T07:21:00.554Z,94.58
2017-11-04T07:23:28.141Z,94.70
2017-11-04T07:25:55.692Z,94.75
2017-11-04T07:28:23.247Z,94.58
2017-11-04T07:30:50.802Z,94.32
2017-11-04T07:33:18.401Z,94.21
2017-11-04T07:35:45.946Z,94.19
2017-11-04T07:38:13.689Z,94.06
2017-11-04T07:40:41.262Z,94.21
2017-11-04T07:43:08.810Z,94.45
2017-11-04T07:45:36.388Z,94.45
2017-11-04T07:48:03.929Z,94.48
2017-11-04T07:50:31.474Z,94.50
2017-11-04T07:52:59.044Z,94.78
2017-11-04T07:55:26.778Z,94.04
2017-11-04T07:57:54.352Z,93.78
2017-11-04T08:00:21.901Z,93.71
2017-11-04T08:02:49.463Z,93.72
2017-11-04T08:05:17.042Z,93.66
2017-11-04T08:07:44.592Z,93.76
2017-11-04T08:10:12.211Z,93.27
2017-11-04T08:12:39.751Z,93.00
2017-11-04T08:15:07.288Z,92.97
2017-11-04T08:17:34.851Z,93.30
2017-11-04T08:20:02.375Z,93.12
2017-11-04T08:22:29.949Z,92.98
2017-11-04T08:24:57.562Z,93.39
2017-11-04T08:27:25.259Z,93.49
2017-11-04T08:29:52.838Z,93.53
2017-11-04T08:32:20.392Z,93.78
2017-11-04T08:34:47.972Z,93.57
2017-11-04T08:37:15.540Z,93.43
2017-11-04T08:39:43.119Z,93.42
2017-11-04T08:42:10.671Z,93.15
2017-11-04T08:44:38.223Z,93.04
2017-11-04T08:47:05.796Z,92.66
2017-11-04T08:49:33.357Z,92.39
2017-11-04T08:52:00.960Z,92.19
2017-11-04T08:54:28.531Z,92.00
2017-11-04T08:56:56.147Z,92.00
2017-11-04T08:59:23.741Z,91.55
2017-11-04T09:01:51.476Z,91.14
2017-11-04T09:04:19.069Z,91.44
2017-11-04T09:06:46.643Z,91.53
2017-11-04T09:09:14.354Z,91.45
2017-11-04T09:11:41.942Z,91.70
2017-11-04T09:14:09.491Z,91.71
2017-11-04T09:16:37.204Z,90.93
2017-11-04T09:19:04.785Z,91.18
2017-11-04T09:21:32.385Z,91.09
2017-11-04T09:23:59.938Z,90.46
2017-11-04T09:26:27.497Z,90.28
2017-11-04T09:28:55.207Z,90.62
2017-11-04T09:31:22.760Z,90.79
2017-11-04T09:33:50.343Z,90.69
2017-11-04T09:36:18.087Z,90.71
2017-11-04T09:38:45.638Z,90.32
2017-11-04T09:41:13.235Z,90.07
2017-11-04T09:43:40.797Z,89.96
2017-11-04T09:46:08.441Z,90.29
2017-11-04T09:48:35.985Z,89.65
2017-11-04T09:51:03.544Z,89.33
2017-11-04T09:53:31.117Z,89.47
2017-11-04T09:55:58.676Z,88.57
2017-11-04T09:58:26.598Z,87.40
2017-11-04T10:00:54.209Z,87.41
2017-11-04T10:03:21.861Z,87.51
2017-11-04T10:05:49.444Z,87.79
2017-11-04T10:08:16.996Z,87.16
2017-11-04T10:10:44.772Z,87.55
2017-11-04T10:13:12.351Z,88.01
2017-11-04T10:15:39.893Z,88.15
2017-11-04T10:18:07.457Z,88.31
2017-11-04T10:20:35.026Z,88.63
2017-11-04T10:23:02.593Z,88.19
2017-11-04T10:25:30.160Z,87.79
2017-11-04T10:27:57.690Z,87.73
2017-11-04T10:30:25.266Z,87.47
2017-11-04T10:32:52.816Z,87.09
2017-11-04T10:35:20.417Z,86.45
2017-11-04T10:37:47.962Z,85.75
2017-11-04T10:40:15.515Z,85.44
2017-11-04T10:42:44.142Z,85.41
2017-11-04T10:45:11.692Z,85.45
2017-11-04T10:47:39.265Z,84.84
2017-11-04T10:50:06.818Z,84.58
2017-11-04T10:52:34.377Z,84.30
2017-11-04T10:55:01.940Z,84.45
2017-11-04T10:57:29.489Z,83.92
2017-11-04T10:59:57.095Z,83.79
2017-11-04T11:02:24.652Z,83.77
2017-11-04T11:04:52.222Z,82.24
2017-11-04T11:07:19.788Z,82.61
2017-11-04T11:09:47.347Z,83.09
2017-11-04T11:12:14.929Z,83.42
2017-11-04T11:14:42.480Z,83.49
2017-11-04T11:17:10.049Z,82.60
2017-11-04T11:19:37.608Z,82.44
2017-11-04T11:22:05.679Z,82.56
2017-11-04T11:24:33.256Z,82.76
2017-11-04T11:27:01.019Z,82.35
2017-11-04T11:29:28.599Z,82.25
2017-11-04T11:31:56.161Z,82.48
2017-11-04T11:34:23.747Z,82.10
2017-11-04T11:36:51.314Z,82.02
2017-11-04T11:39:18.891Z,82.33
2017-11-04T11:41:46.506Z,82.61
2017-11-04T11:44:14.082Z,82.37
2017-11-04T11:46:41.676Z,82.35
2017-11-04T11:49:09.253Z,82.34
2017-11-04T11:51:36.835Z,81.93
2017-11-04T11:54:04.420Z,82.24
2017-11-04T11:56:31.990Z,82.15
2017-11-04T11:58:59.603Z,81.73
2017-11-04T12:01:27.148Z,81.94
2017-11-04T12:03:54.723Z,81.87
2017-11-04T12:06:22.327Z,82.04
2017-11-04T12:08:49.926Z,81.91
2017-11-04T12:11:17.513Z,82.06
2017-11-04T12:13:45.088Z,81.84
2017-11-04T12:16:12.755Z,82.07
2017-11-04T12:18:40.313Z,82.57
2017-11-04T12:21:07.895Z,82.19
2017-11-04T12:23:35.508Z,82.40
2017-11-04T12:26:03.085Z,82.87
2017-11-04T12:28:30.665Z,82.72
2017-11-04T12:30:58.236Z,82.43
2017-11-04T12:33:25.812Z,82.42
2017-11-04T12:35:53.373Z,82.42
2017-11-04T12:38:20.930Z,82.53
2017-11-04T12:40:48.540Z,82.46
2017-11-04T12:43:16.108Z,82.63
2017-11-04T12:45:43.697Z,82.62
2017-11-04T12:48:11.250Z,82.38
2017-11-04T12:50:38.828Z,82.34
2017-11-04T12:53:06.404Z,82.37
2017-11-04T12:55:33.969Z,82.09
2017-11-04T12:58:01.763Z,82.01
2017-11-04T13:00:29.327Z,82.19
2017-11-04T13:02:56.907Z,82.42
2017-11-04T13:05:24.470Z,82.17
2017-11-04T13:07:52.061Z,81.92
2017-11-04T13:10:19.634Z,80.96
2017-11-04T13:12:47.201Z,80.84
2017-11-04T13:15:14.795Z,81.60
2017-11-04T13:17:42.366Z,81.97
2017-11-04T13:20:09.934Z,81.95
2017-11-04T13:22:37.646Z,82.06
2017-11-04T13:25:05.261Z,82.03
2017-11-04T13:27:32.816Z,81.57
2017-11-04T13:30:00.383Z,81.28
2017-11-04T13:32:27.984Z,81.41
2017-11-04T13:34:55.529Z,81.46
2017-11-04T13:37:23.155Z,81.62
2017-11-04T13:39:50.719Z,81.53
2017-11-04T13:42:18.285Z,81.66
2017-11-04T13:44:45.937Z,81.50
2017-11-04T13:49:47.411Z,81.49
2017-11-04T13:52:15.439Z,81.08
2017-11-04T13:54:43.005Z,80.95
2017-11-04T13:57:10.667Z,81.09
2017-11-04T13:59:38.294Z,80.79
2017-11-04T14:02:05.846Z,80.70
2017-11-04T14:04:33.655Z,79.92
2017-11-04T14:07:01.217Z,80.41
2017-11-04T14:09:28.821Z,80.41
2017-11-04T14:11:56.375Z,80.20
2017-11-04T14:14:23.950Z,80.28
2017-11-04T14:16:51.568Z,80.34
2017-11-04T14:19:19.140Z,80.15
2017-11-04T14:21:46.699Z,79.82
2017-11-04T14:24:14.369Z,80.26
2017-11-04T14:26:42.058Z,80.30
2017-11-04T14:29:09.682Z,80.26
2017-11-04T14:31:37.247Z,80.08
2017-11-04T14:34:04.793Z,80.39
2017-11-04T14:36:32.384Z,80.73
2017-11-04T14:39:00.045Z,80.84
2017-11-04T14:41:27.643Z,80.90
2017-11-04T14:43:55.228Z,81.13
2017-11-04T14:46:22.783Z,81.13
2017-11-04T14:48:50.537Z,81.18
2017-11-04T14:51:18.233Z,81.45
2017-11-04T14:53:45.801Z,81.52
2017-11-04T14:56:13.384Z,81.63
2017-11-04T14:58:40.944Z,81.81
2017-11-04T15:01:08.550Z,82.00
2017-11-04T15:03:36.131Z,82.21
2017-11-04T15:06:03.749Z,82.45
2017-11-04T15:08:31.357Z,82.64
2017-11-04T15:10:58.917Z,82.90
2017-11-04T15:13:26.515Z,83.15
2017-11-04T15:15:54.074Z,83.26
2017-11-04T15:18:21.690Z,83.32
2017-11-04T15:20:49.340Z,83.55
2017-11-04T15:23:16.931Z,83.53
2017-11-04T15:25:44.551Z,83.59
2017-11-04T15:28:12.128Z,83.72
2017-11-04T15:30:40.114Z,83.92
2017-11-04T15:33:07.677Z,84.02
2017-11-04T15:35:35.264Z,84.11
2017-11-04T15:38:03.012Z,84.23
2017-11-04T15:40:30.632Z,84.34
2017-11-04T15:42:59.656Z,84.42
2017-11-04T15:45:27.379Z,84.56
2017-11-04T15:47:54.950Z,84.70
2017-11-04T15:50:22.538Z,84.86
2017-11-04T15:52:50.124Z,84.91
2017-11-04T15:55:17.735Z,84.99
2017-11-04T15:57:45.314Z,85.06
2017-11-04T16:00:12.895Z,85.25
2017-11-04T16:02:40.491Z,85.37
2017-11-04T16:05:08.292Z,85.45
2017-11-04T16:07:36.330Z,85.55
2017-11-04T16:10:04.137Z,85.75
2017-11-04T16:12:31.732Z,86.05
2017-11-04T16:14:59.628Z,86.21
2017-11-04T16:17:27.213Z,86.35
2017-11-04T16:19:54.795Z,86.45
2017-11-04T16:22:22.379Z,86.53
2017-11-04T16:24:49.955Z,86.92
2017-11-04T16:27:17.502Z,87.22
2017-11-04T16:29:45.104Z,87.36
2017-11-04T16:32:12.719Z,87.43
2017-11-04T16:34:40.295Z,87.51
2017-11-04T16:37:07.923Z,87.70
2017-11-04T16:39:35.556Z,87.80
2017-11-04T16:42:03.177Z,87.91
2017-11-04T16:44:30.734Z,88.15
2017-11-04T16:46:58.312Z,88.32
2017-11-04T16:49:25.914Z,88.42
2017-11-04T16:51:53.466Z,88.57
2017-11-04T16:54:21.152Z,88.96
2017-11-04T16:56:48.729Z,89.27
2017-11-04T16:59:16.414Z,89.57
2017-11-04T17:01:44.120Z,89.79
2017-11-04T17:04:11.700Z,89.71
2017-11-04T17:09:13.366Z,89.56
2017-11-04T17:11:41.323Z,89.81
2017-11-04T17:14:08.905Z,90.10
2017-11-04T17:16:36.458Z,90.07
2017-11-04T17:19:04.046Z,90.03
2017-11-04T17:21:31.590Z,90.08
2017-11-04T17:23:59.228Z,90.24
2017-11-04T17:26:26.819Z,90.49
2017-11-04T17:28:54.428Z,90.54
2017-11-04T17:31:21.982Z,90.60
2017-11-04T17:33:49.538Z,90.61
2017-11-04T17:36:17.201Z,90.67
2017-11-04T17:38:44.758Z,90.74
2017-11-04T17:41:12.368Z,90.75
2017-11-04T17:43:40.049Z,90.82
2017-11-04T17:46:07.653Z,91.07
2017-11-04T17:48:35.208Z,91.16
2017-11-04T17:51:02.788Z,91.24
2017-11-04T17:53:30.379Z,91.22
2017-11-04T17:55:57.969Z,91.38
2017-11-04T17:58:25.583Z,91.50
2017-11-04T18:00:53.146Z,91.66
2017-11-04T18:03:20.904Z,92.10
2017-11-04T18:05:48.466Z,92.05
2017-11-04T18:08:16.117Z,92.01
2017-11-04T18:10:43.715Z,92.06
2017-11-04T18:13:11.339Z,92.16
2017-11-04T18:15:38.923Z,92.18
2017-11-04T18:18:06.607Z,92.70
2017-11-04T18:20:34.209Z,92.86
2017-11-04T18:23:01.963Z,92.75
2017-11-04T18:25:29.561Z,92.62
2017-11-04T18:27:57.264Z,92.47
2017-11-04T18:30:24.859Z,92.43
2017-11-04T18:32:52.507Z,92.29
2017-11-04T18:35:20.140Z,92.22
2017-11-04T18:37:47.728Z,92.22
2017-11-04T18:40:15.322Z,92.16
2017-11-04T18:42:42.989Z,92.75
2017-11-04T18:45:10.672Z,92.90
2017-11-04T18:47:38.289Z,93.02
2017-11-04T18:50:05.922Z,92.97
2017-11-04T18:52:33.517Z,92.98
2017-11-04T18:55:01.106Z,92.88
2017-11-04T18:57:28.737Z,92.85
2017-11-04T18:59:56.373Z,92.79
2017-11-04T19:02:24.084Z,92.70
2017-11-04T19:04:51.741Z,92.67
2017-11-04T19:07:19.399Z,92.71
2017-11-04T19:09:47.017Z,92.72
2017-11-04T19:12:14.660Z,92.65
2017-11-04T19:14:42.303Z,92.55
2017-11-04T19:17:09.981Z,92.50
2017-11-04T19:19:37.681Z,92.46
2017-11-04T19:22:05.318Z,92.58
2017-11-04T19:24:32.926Z,92.59
2017-11-04T19:27:00.624Z,92.65
2017-11-04T19:29:28.250Z,93.05
2017-11-04T19:31:55.983Z,93.09
2017-11-04T19:34:24.120Z,93.11
2017-11-04T19:36:51.896Z,93.04
2017-11-04T19:39:19.681Z,93.00
2017-11-04T19:41:47.499Z,93.10
2017-11-04T19:44:15.234Z,93.24
2017-11-04T19:46:44.369Z,93.30
2017-11-04T19:49:12.220Z,93.44
2017-11-04T19:51:39.972Z,93.67
2017-11-04T19:54:07.698Z,93.67
2017-11-04T19:56:35.582Z,93.69
2017-11-04T19:59:03.316Z,93.58
2017-11-04T20:01:31.831Z,93.51
2017-11-04T20:03:59.746Z,93.51
2017-11-04T20:06:28.221Z,93.57
2017-11-04T20:08:56.279Z,93.66
2017-11-04T20:11:24.083Z,93.56
2017-11-04T20:13:51.806Z,93.45
2017-11-04T20:16:20.114Z,93.39
2017-11-04T20:18:47.971Z,93.27
2017-11-04T20:21:15.663Z,93.14
2017-11-04T20:23:43.656Z,93.07
2017-11-04T20:26:11.448Z,93.17
2017-11-04T20:28:39.237Z,93.13
2017-11-04T20:31:06.963Z,93.19
2017-11-04T20:33:34.855Z,93.50
2017-11-04T20:36:02.621Z,93.60
2017-11-04T20:38:31.113Z,93.66
2017-11-04T20:40:58.976Z,93.56
2017-11-04T20:43:26.696Z,93.54
2017-11-04T20:45:54.479Z,93.33
2017-11-04T20:48:23.018Z,93.29
2017-11-04T20:50:50.813Z,93.35
2017-11-04T20:53:18.475Z,93.22
2017-11-04T20:55:46.264Z,93.20
2017-11-04T20:58:14.028Z,93.26
2017-11-04T21:00:41.752Z,93.13
2017-11-04T21:03:09.553Z,93.08
2017-11-04T21:05:37.331Z,93.00
2017-11-04T21:08:05.207Z,92.85
2017-11-04T21:10:32.940Z,92.74
2017-11-04T21:13:00.975Z,92.75
2017-11-04T21:15:28.659Z,92.83
2017-11-04T21:17:56.384Z,92.79
2017-11-04T21:20:24.221Z,92.79
2017-11-04T21:22:51.863Z,93.13
2017-11-04T21:25:19.554Z,93.18
2017-11-04T21:27:47.152Z,93.48
2017-11-04T21:30:15.765Z,93.50
2017-11-04T21:32:43.380Z,93.39
2017-11-04T21:35:11.001Z,93.34
2017-11-04T21:37:38.605Z,93.28
2017-11-04T21:40:06.183Z,93.58
2017-11-04T21:42:33.778Z,93.72
2017-11-04T21:45:01.557Z,93.81
2017-11-04T21:47:29.238Z,93.58
2017-11-04T21:49:56.835Z,93.08
2017-11-04T21:52:24.759Z,92.56
2017-11-04T21:54:52.351Z,92.35
2017-11-04T21:57:19.921Z,92.30
2017-11-04T21:59:47.662Z,92.25
2017-11-04T22:02:15.224Z,92.04
2017-11-04T22:04:42.825Z,91.98
2017-11-04T22:07:10.441Z,91.94
2017-11-04T22:09:38.011Z,92.11
2017-11-04T22:12:05.609Z,92.31
2017-11-04T22:14:33.194Z,92.59
2017-11-04T22:17:01.190Z,92.55
2017-11-04T22:19:28.751Z,92.78
2017-11-04T22:21:56.322Z,93.19
2017-11-04T22:24:29.764Z,93.27
2017-11-04T22:26:57.325Z,93.27
2017-11-04T22:29:24.933Z,93.26
2017-11-04T22:31:52.578Z,93.05
2017-11-04T22:34:20.125Z,92.86
2017-11-04T22:36:47.713Z,92.98
2017-11-04T22:39:15.271Z,93.15
2017-11-04T22:41:42.888Z,93.28
2017-11-04T22:44:10.440Z,93.43
2017-11-04T22:46:38.047Z,93.58
2017-11-04T22:49:05.633Z,93.79
2017-11-04T22:51:33.212Z,93.95
2017-11-04T22:54:00.777Z,94.09
2017-11-04T22:56:28.436Z,94.00
2017-11-04T22:58:56.169Z,93.96
2017-11-04T23:03:57.717Z,93.60
2017-11-04T23:06:25.314Z,93.46
2017-11-04T23:08:52.882Z,93.76
2017-11-04T23:11:20.473Z,93.91
2017-11-04T23:13:48.195Z,94.07
2017-11-04T23:16:16.121Z,93.98
2017-11-04T23:18:43.656Z,93.82
2017-11-04T23:21:11.222Z,93.89
2017-11-04T23:23:38.792Z,94.00
2017-11-04T23:26:06.353Z,93.84
2017-11-04T23:28:33.938Z,93.74
2017-11-04T23:31:01.534Z,93.27
2017-11-04T23:33:29.119Z,92.77
2017-11-04T23:35:56.679Z,92.58
2017-11-04T23:38:24.415Z,92.56
2017-11-04T23:40:52.200Z,92.43
2017-11-04T23:43:19.762Z,92.29
2017-11-04T23:45:47.460Z,92.17
2017-11-04T23:48:15.023Z,92.08
2017-11-04T23:50:42.624Z,92.04
2017-11-04T23:53:10.164Z,91.84
2017-11-04T23:55:37.705Z,91.70
2017-11-04T23:58:05.341Z,91.70
